createdAt,value
2019-04-28T00:05:12.694Z,96767.70
2019-04-28T00:07:38.530Z,96755.75
2019-04-28T00:10:24.249Z,96764.98
2019-04-28T00:12:51.109Z,96764.20
2019-04-28T00:15:17.930Z,96760.02
2019-04-28T00:17:43.762Z,96759.98
2019-04-28T00:23:17.050Z,96762.80
2019-04-28T00:26:02.779Z,96761.93
2019-04-28T00:28:48.631Z,96760.27
2019-04-28T00:31:14.614Z,96760.27
2019-04-28T00:33:41.038Z,96774.56
2019-04-28T00:36:08.216Z,96776.27
2019-04-28T00:38:34.050Z,96776.17
2019-04-28T00:40:59.894Z,96773.26
2019-04-28T00:43:25.754Z,96775.77
2019-04-28T00:45:51.677Z,96774.66
2019-04-28T00:48:17.543Z,96761.82
2019-04-28T00:50:43.765Z,96765.57
2019-04-28T00:53:11.677Z,96771.05
2019-04-28T00:55:38.887Z,96772.62
2019-04-28T00:58:04.726Z,96769.22
2019-04-28T01:03:04.289Z,96773.20
2019-04-28T01:05:31.196Z,96772.38
2019-04-28T01:07:58.005Z,96773.69
2019-04-28T01:12:57.866Z,96770.00
2019-04-28T01:18:21.795Z,96770.77
2019-04-28T01:20:49.497Z,96774.61
2019-04-28T01:23:15.519Z,96770.92
2019-04-28T01:25:41.358Z,96770.96
2019-04-28T01:28:07.183Z,96770.19
2019-04-28T01:30:52.923Z,96777.73
2019-04-28T01:33:40.538Z,96772.28
2019-04-28T01:36:06.514Z,96758.23
2019-04-28T01:38:32.334Z,96758.23
2019-04-28T01:40:59.758Z,96768.73
2019-04-28T01:43:25.928Z,96760.72
2019-04-28T01:45:51.767Z,96768.57
2019-04-28T01:48:17.637Z,96764.41
2019-04-28T01:50:43.510Z,96762.31
2019-04-28T01:53:09.755Z,96758.61
2019-04-28T01:55:37.111Z,96756.53
2019-04-28T01:58:03.047Z,96771.48
2019-04-28T02:00:29.680Z,96772.42
2019-04-28T02:02:56.770Z,96773.94
2019-04-28T02:05:22.720Z,96775.09
2019-04-28T02:07:50.467Z,96769.45
2019-04-28T02:11:00.002Z,96772.66
2019-04-28T02:13:25.705Z,96781.52
2019-04-28T02:15:51.555Z,96768.94
2019-04-28T02:18:17.393Z,96775.41
2019-04-28T02:23:37.020Z,96773.94
2019-04-28T02:26:03.056Z,96773.94
2019-04-28T02:28:29.625Z,96771.59
2019-04-28T02:31:16.528Z,96774.67
2019-04-28T02:33:42.377Z,96774.67
2019-04-28T02:36:09.730Z,96770.53
2019-04-28T02:38:35.976Z,96769.51
2019-04-28T02:41:01.828Z,96778.03
2019-04-28T02:43:27.669Z,96784.79
2019-04-28T02:46:35.156Z,96788.81
2019-04-28T02:52:10.741Z,96804.02
2019-04-28T02:54:56.794Z,96805.05
2019-04-28T02:57:22.639Z,96805.05
2019-04-28T02:59:50.839Z,96809.52
2019-04-28T03:02:36.207Z,96818.87
2019-04-28T03:05:43.694Z,96818.87
2019-04-28T03:08:11.120Z,96825.73
2019-04-28T03:10:37.382Z,96818.94
2019-04-28T03:13:03.318Z,96827.65
2019-04-28T03:15:30.275Z,96836.08
2019-04-28T03:17:56.985Z,96835.55
2019-04-28T03:20:22.832Z,96845.53
2019-04-28T03:22:51.039Z,96838.95
2019-04-28T03:25:36.383Z,96841.56
2019-04-28T03:28:22.406Z,96842.81
2019-04-28T03:31:40.538Z,96847.52
2019-04-28T03:33:41.942Z,96845.89
2019-04-28T03:36:08.732Z,96851.89
2019-04-28T03:38:31.574Z,96854.27
2019-04-28T03:40:57.414Z,96859.75
2019-04-28T03:43:23.426Z,96855.00
2019-04-28T03:48:36.669Z,96858.57
2019-04-28T03:51:02.725Z,96856.30
2019-04-28T03:53:31.037Z,96846.34
2019-04-28T03:55:56.338Z,96856.86
2019-04-28T03:58:24.307Z,96853.42
2019-04-28T04:00:50.725Z,96852.12
2019-04-28T04:03:20.642Z,96852.18
2019-04-28T04:05:45.433Z,96860.57
2019-04-28T04:08:31.271Z,96849.06
2019-04-28T04:11:16.963Z,96849.06
2019-04-28T04:14:02.666Z,96856.39
2019-04-28T04:16:50.246Z,96858.05
2019-04-28T04:22:03.494Z,96841.82
2019-04-28T04:24:30.656Z,96841.57
2019-04-28T04:26:57.085Z,96845.53
2019-04-28T04:29:22.923Z,96846.59
2019-04-28T04:31:51.065Z,96841.23
2019-04-28T04:34:16.537Z,96833.93
2019-04-28T04:36:42.384Z,96841.98
2019-04-28T04:39:10.743Z,96839.95
2019-04-28T04:41:35.963Z,96833.43
2019-04-28T04:44:01.825Z,96832.41
2019-04-28T04:49:34.895Z,96838.95
2019-04-28T04:52:00.772Z,96841.82
2019-04-28T04:54:26.621Z,96837.95
2019-04-28T04:56:52.457Z,96841.91
2019-04-28T04:59:20.231Z,96840.34
2019-04-28T05:07:10.889Z,96843.08
2019-04-28T05:09:39.510Z,96843.89
2019-04-28T05:12:06.029Z,96851.24
2019-04-28T05:14:31.879Z,96847.87
2019-04-28T05:16:57.699Z,96846.31
2019-04-28T05:19:23.549Z,96853.13
2019-04-28T05:21:49.830Z,96859.13
2019-04-28T05:24:37.025Z,96850.69
2019-04-28T05:29:51.353Z,96865.92
2019-04-28T05:32:17.968Z,96875.31
2019-04-28T05:34:46.630Z,96875.84
2019-04-28T05:37:11.546Z,96880.83
2019-04-28T05:39:38.601Z,96885.61
2019-04-28T05:42:05.241Z,96886.06
2019-04-28T05:44:32.067Z,96889.02
2019-04-28T05:46:59.543Z,96889.81
2019-04-28T05:49:46.442Z,96901.16
2019-04-28T05:52:32.278Z,96900.92
2019-04-28T05:57:55.149Z,96905.38
2019-04-28T06:05:31.962Z,96907.89
2019-04-28T06:08:20.209Z,96916.31
2019-04-28T06:10:46.170Z,96914.03
2019-04-28T06:13:12.013Z,96909.58
2019-04-28T06:15:39.567Z,96906.98
2019-04-28T06:18:05.618Z,96911.92
2019-04-28T06:20:31.455Z,96911.16
2019-04-28T06:22:57.305Z,96920.34
2019-04-28T06:25:23.169Z,96919.09
2019-04-28T06:27:49.033Z,96917.52
2019-04-28T06:30:14.980Z,96917.78
2019-04-28T06:32:40.938Z,96922.53
2019-04-28T06:35:06.789Z,96924.61
2019-04-28T06:37:32.647Z,96928.27
2019-04-28T06:39:58.496Z,96929.03
2019-04-28T06:42:24.346Z,96929.80
2019-04-28T06:44:50.177Z,96936.59
2019-04-28T06:47:16.897Z,96937.13
2019-04-28T06:49:43.763Z,96948.09
2019-04-28T06:52:09.604Z,96939.99
2019-04-28T06:54:35.460Z,96948.87
2019-04-28T06:57:01.296Z,96949.84
2019-04-28T06:59:27.146Z,96949.58
2019-04-28T07:01:52.993Z,96953.73
2019-04-28T07:04:18.829Z,96953.41
2019-04-28T07:06:44.654Z,96959.16
2019-04-28T07:09:10.527Z,96962.05
2019-04-28T07:11:36.361Z,96955.23
2019-04-28T07:14:02.319Z,96953.65
2019-04-28T07:16:28.151Z,96962.98
2019-04-28T07:18:53.982Z,96962.22
2019-04-28T07:21:39.725Z,96960.66
2019-04-28T07:24:05.654Z,96957.47
2019-04-28T07:26:31.596Z,96955.09
2019-04-28T07:28:57.432Z,96960.59
2019-04-28T07:33:56.885Z,96962.09
2019-04-28T07:36:22.838Z,96959.84
2019-04-28T07:38:48.668Z,96963.31
2019-04-28T07:41:14.534Z,96966.73
2019-04-28T07:43:40.368Z,96970.42
2019-04-28T07:46:06.219Z,96960.83
2019-04-28T07:48:52.460Z,96961.69
2019-04-28T07:56:29.222Z,96978.13
2019-04-28T07:58:55.090Z,96978.13
2019-04-28T08:01:21.033Z,96977.59
2019-04-28T08:03:49.617Z,96977.19
2019-04-28T08:06:14.652Z,96977.66
2019-04-28T08:08:40.506Z,96985.82
2019-04-28T08:11:06.354Z,96987.18
2019-04-28T08:13:32.205Z,96983.61
2019-04-28T08:15:58.048Z,96980.43
2019-04-28T08:18:23.893Z,96974.15
2019-04-28T08:20:49.942Z,96973.89
2019-04-28T08:23:15.784Z,96972.91
2019-04-28T08:25:41.632Z,96974.13
2019-04-28T08:28:07.481Z,96982.76
2019-04-28T08:34:01.846Z,96983.86
2019-04-28T08:36:18.331Z,96983.86
2019-04-28T08:38:44.271Z,96998.23
2019-04-28T08:41:10.130Z,96983.85
2019-04-28T08:43:36.099Z,96996.03
2019-04-28T08:46:01.933Z,96992.54
2019-04-28T08:48:27.767Z,96994.56
2019-04-28T08:50:53.692Z,96998.22
2019-04-28T08:53:19.574Z,96997.31
2019-04-28T08:55:45.391Z,96995.55
2019-04-28T08:58:11.274Z,97000.27
2019-04-28T09:00:37.112Z,96997.41
2019-04-28T09:03:03.648Z,97007.39
2019-04-28T09:05:49.414Z,97010.50
2019-04-28T09:08:15.259Z,97010.50
2019-04-28T09:10:41.529Z,96997.55
2019-04-28T09:13:07.550Z,97010.64
2019-04-28T09:15:33.436Z,97006.46
2019-04-28T09:17:59.278Z,97011.73
2019-04-28T09:20:25.147Z,97007.88
2019-04-28T09:22:50.976Z,97017.12
2019-04-28T09:25:16.857Z,97010.59
2019-04-28T09:27:42.704Z,97014.34
2019-04-28T09:30:08.744Z,97016.34
2019-04-28T09:32:34.565Z,97024.81
2019-04-28T09:35:00.427Z,97019.54
2019-04-28T09:37:26.551Z,97023.31
2019-04-28T09:40:12.328Z,97018.30
2019-04-28T09:45:45.411Z,97023.64
2019-04-28T09:48:31.133Z,97019.86
2019-04-28T09:50:57.016Z,97019.86
2019-04-28T09:53:22.864Z,97018.88
2019-04-28T09:55:48.716Z,97022.33
2019-04-28T09:58:14.561Z,97025.89
2019-04-28T10:00:40.417Z,97029.45
2019-04-28T10:03:06.374Z,97032.54
2019-04-28T10:05:32.252Z,97029.11
2019-04-28T10:07:58.082Z,97024.34
2019-04-28T10:10:23.953Z,97023.94
2019-04-28T10:12:49.911Z,97023.98
2019-04-28T10:15:15.899Z,97023.66
2019-04-28T10:17:41.773Z,97025.69
2019-04-28T10:20:49.256Z,97030.05
2019-04-28T10:23:15.085Z,97027.02
2019-04-28T10:25:41.035Z,97016.65
2019-04-28T10:28:06.881Z,97015.22
2019-04-28T10:30:32.843Z,97017.49
2019-04-28T10:32:58.675Z,97017.51
2019-04-28T10:35:24.643Z,97015.33
2019-04-28T10:37:50.470Z,97009.06
2019-04-28T10:40:57.982Z,97009.36
2019-04-28T10:43:23.895Z,97007.50
2019-04-28T10:46:31.374Z,97007.14
2019-04-28T10:48:57.354Z,97009.62
2019-04-28T10:51:23.217Z,97009.99
2019-04-28T10:53:49.057Z,97006.10
2019-04-28T10:56:14.898Z,97003.59
2019-04-28T11:01:14.420Z,96997.44
2019-04-28T11:06:34.162Z,96998.19
2019-04-28T11:09:39.762Z,96992.39
2019-04-28T11:12:45.381Z,96997.42
2019-04-28T11:15:52.872Z,96997.42
2019-04-28T11:20:52.510Z,97011.27
2019-04-28T11:23:18.459Z,97011.51
2019-04-28T11:25:44.397Z,97009.17
2019-04-28T11:28:10.392Z,97013.26
2019-04-28T11:30:56.105Z,97014.78
2019-04-28T11:33:44.274Z,97008.45
2019-04-28T11:38:59.377Z,97007.63
2019-04-28T11:41:25.241Z,96998.00
2019-04-28T11:43:51.111Z,97011.98
2019-04-28T11:49:25.263Z,97002.34
2019-04-28T11:52:05.214Z,96996.49
2019-04-28T11:54:31.100Z,96996.49
2019-04-28T11:56:56.969Z,97010.59
2019-04-28T11:59:22.819Z,97010.68
2019-04-28T12:01:48.650Z,97006.96
2019-04-28T12:07:21.749Z,97003.19
2019-04-28T12:10:07.470Z,97003.19
2019-04-28T12:15:40.566Z,96998.77
2019-04-28T12:18:26.299Z,96997.44
2019-04-28T12:20:52.264Z,96983.86
2019-04-28T12:23:18.104Z,96994.22
2019-04-28T12:25:43.939Z,96995.30
2019-04-28T12:28:09.793Z,96995.78
2019-04-28T12:30:35.638Z,96992.61
2019-04-28T12:33:01.479Z,96988.59
2019-04-28T12:35:27.344Z,96995.72
2019-04-28T12:37:53.183Z,96990.64
2019-04-28T12:40:19.024Z,96993.22
2019-04-28T12:42:44.888Z,96988.41
2019-04-28T12:45:10.832Z,96989.39
2019-04-28T12:47:36.819Z,96984.15
2019-04-28T12:50:42.400Z,96991.36
2019-04-28T12:53:23.505Z,96973.91
2019-04-28T12:56:03.111Z,96976.37
2019-04-28T12:58:29.001Z,96976.37
2019-04-28T13:01:34.583Z,96963.43
2019-04-28T13:04:20.394Z,96972.09
2019-04-28T13:07:06.117Z,96974.27
2019-04-28T13:09:31.972Z,96970.69
2019-04-28T13:12:17.678Z,96974.80
2019-04-28T13:15:04.109Z,96968.19
2019-04-28T13:17:49.825Z,96976.67
2019-04-28T13:20:15.768Z,96975.89
2019-04-28T13:22:41.657Z,96975.89
2019-04-28T13:25:07.632Z,96971.86
2019-04-28T13:27:33.487Z,96974.39
2019-04-28T13:29:59.463Z,96970.76
2019-04-28T13:32:45.195Z,96959.49
2019-04-28T13:35:11.191Z,96959.49
2019-04-28T13:37:37.065Z,96970.02
2019-04-28T13:40:44.532Z,96968.91
2019-04-28T13:43:30.272Z,96958.81
2019-04-28T13:45:56.204Z,96958.81
2019-04-28T13:48:22.010Z,96977.30
2019-04-28T13:50:49.023Z,96959.63
2019-04-28T13:53:15.630Z,96964.67
2019-04-28T13:56:01.365Z,96967.50
2019-04-28T14:04:48.319Z,96952.78
2019-04-28T14:07:14.220Z,96952.19
2019-04-28T14:09:40.060Z,96950.89
2019-04-28T14:12:06.088Z,96947.22
2019-04-28T14:14:51.841Z,96932.30
2019-04-28T14:17:17.769Z,96932.30
2019-04-28T14:19:43.636Z,96930.63
2019-04-28T14:22:09.572Z,96928.80
2019-04-28T14:24:35.486Z,96932.35
2019-04-28T14:27:01.281Z,96923.92
2019-04-28T14:29:27.145Z,96931.04
2019-04-28T14:31:53.024Z,96936.50
2019-04-28T14:34:18.839Z,96934.78
2019-04-28T14:36:44.653Z,96938.09
2019-04-28T14:39:10.728Z,96933.27
2019-04-28T14:41:56.452Z,96927.02
2019-04-28T14:44:22.349Z,96927.02
2019-04-28T14:46:48.157Z,96925.95
2019-04-28T14:49:14.002Z,96928.14
2019-04-28T14:51:39.869Z,96926.11
2019-04-28T14:54:05.731Z,96927.13
2019-04-28T14:56:31.628Z,96923.77
2019-04-28T14:58:57.522Z,96935.98
2019-04-28T15:01:43.254Z,96930.61
2019-04-28T15:04:48.890Z,96931.07
2019-04-28T15:07:34.654Z,96931.07
2019-04-28T15:10:40.286Z,96936.92
2019-04-28T15:13:26.421Z,96939.41
2019-04-28T15:15:52.271Z,96939.41
2019-04-28T15:18:18.174Z,96931.30
2019-04-28T15:20:44.204Z,96945.69
2019-04-28T15:23:10.020Z,96941.88
2019-04-28T15:25:35.886Z,96942.10
2019-04-28T15:28:01.713Z,96938.31
2019-04-28T15:30:27.525Z,96940.38
2019-04-28T15:32:53.377Z,96946.09
2019-04-28T15:35:19.208Z,96943.81
2019-04-28T15:37:45.071Z,96942.56
2019-04-28T15:40:52.567Z,96941.57
2019-04-28T15:43:18.414Z,96942.80
2019-04-28T15:45:44.284Z,96942.84
2019-04-28T15:48:10.132Z,96941.40
2019-04-28T15:50:35.970Z,96936.70
2019-04-28T15:53:13.631Z,96936.11
2019-04-28T15:58:38.358Z,96919.75
2019-04-28T16:01:04.456Z,96922.89
2019-04-28T16:03:30.395Z,96918.62
2019-04-28T16:05:56.223Z,96917.88
2019-04-28T16:08:22.085Z,96926.18
2019-04-28T16:10:47.921Z,96921.46
2019-04-28T16:13:13.803Z,96925.34
2019-04-28T16:15:39.667Z,96922.09
2019-04-28T16:18:05.544Z,96921.13
2019-04-28T16:20:31.387Z,96918.77
2019-04-28T16:22:57.249Z,96921.34
2019-04-28T16:25:23.093Z,96929.52
2019-04-28T16:27:48.938Z,96927.58
2019-04-28T16:30:14.920Z,96924.79
2019-04-28T16:32:40.770Z,96926.09
2019-04-28T16:35:06.621Z,96922.13
2019-04-28T16:37:38.834Z,96918.94
2019-04-28T16:40:00.243Z,96919.31
2019-04-28T16:42:46.553Z,96909.53
2019-04-28T16:45:13.451Z,96925.72
2019-04-28T16:47:59.164Z,96926.78
2019-04-28T16:50:25.025Z,96926.78
2019-04-28T16:52:50.887Z,96930.78
2019-04-28T16:55:36.640Z,96937.00
2019-04-28T16:58:22.369Z,96928.81
2019-04-28T17:01:08.128Z,96937.76
2019-04-28T17:06:41.208Z,96930.83
2019-04-28T17:09:27.228Z,96929.99
2019-04-28T17:11:53.216Z,96929.99
2019-04-28T17:17:47.270Z,96951.38
2019-04-28T17:20:33.005Z,96946.25
2019-04-28T17:23:18.768Z,96946.38
2019-04-28T17:25:44.662Z,96946.38
2019-04-28T17:28:10.533Z,96959.30
2019-04-28T17:30:36.377Z,96960.00
2019-04-28T17:33:02.239Z,96959.52
2019-04-28T17:35:28.242Z,96965.24
2019-04-28T17:38:06.013Z,96957.72
2019-04-28T17:40:42.295Z,96962.50
2019-04-28T17:43:28.020Z,96954.64
2019-04-28T17:46:13.762Z,96967.10
2019-04-28T17:49:00.290Z,96967.61
2019-04-28T17:51:26.386Z,96967.61
2019-04-28T17:53:52.251Z,96966.66
2019-04-28T17:56:18.231Z,96966.66
2019-04-28T17:58:44.273Z,96964.46
2019-04-28T18:01:49.889Z,96957.97
2019-04-28T18:04:35.738Z,96968.33
2019-04-28T18:09:36.594Z,96972.52
2019-04-28T18:12:02.570Z,96976.83
2019-04-28T18:14:28.432Z,96981.42
2019-04-28T18:17:14.176Z,96982.92
2019-04-28T18:19:59.991Z,96987.48
2019-04-28T18:22:45.750Z,96989.91
2019-04-28T18:25:31.523Z,96994.16
2019-04-28T18:28:17.227Z,96991.89
2019-04-28T18:31:22.860Z,96991.90
2019-04-28T18:34:08.586Z,96991.90
2019-04-28T18:40:07.708Z,96997.83
2019-04-28T18:42:53.465Z,96997.83
2019-04-28T18:45:19.535Z,97003.20
2019-04-28T18:47:45.435Z,96980.67
2019-04-28T18:50:11.515Z,96980.67
2019-04-28T18:52:37.483Z,97019.34
2019-04-28T18:55:44.983Z,97019.34
2019-04-28T18:58:10.982Z,97022.28
2019-04-28T19:03:44.117Z,97026.08
2019-04-28T19:06:29.967Z,97024.06
2019-04-28T19:09:15.731Z,97024.06
2019-04-28T19:15:09.449Z,97022.20
2019-04-28T19:20:22.727Z,97026.19
2019-04-28T19:22:48.573Z,97030.30
2019-04-28T19:25:14.542Z,97028.75
2019-04-28T19:28:22.044Z,97032.97
2019-04-28T19:30:47.908Z,97028.95
2019-04-28T19:33:33.696Z,97031.23
2019-04-28T19:36:19.455Z,97034.61
2019-04-28T19:38:45.315Z,97034.61
2019-04-28T19:41:31.098Z,97033.98
2019-04-28T19:43:56.950Z,97033.98
2019-04-28T19:46:22.824Z,97005.70
2019-04-28T19:48:48.724Z,97040.69
2019-04-28T19:54:02.129Z,97038.70
2019-04-28T19:59:35.293Z,97049.73
2019-04-28T20:02:21.434Z,97048.21
2019-04-28T20:04:47.294Z,97048.21
2019-04-28T20:07:13.209Z,97051.95
2019-04-28T20:09:39.089Z,97061.66
2019-04-28T20:12:04.968Z,97057.38
2019-04-28T20:14:30.825Z,97054.78
2019-04-28T20:16:56.663Z,97052.29
2019-04-28T20:19:22.552Z,97057.63
2019-04-28T20:21:48.386Z,97054.98
2019-04-28T20:24:14.235Z,97058.10
2019-04-28T20:26:40.124Z,97063.28
2019-04-28T20:29:05.970Z,97062.29
2019-04-28T20:31:31.849Z,97071.22
2019-04-28T20:33:57.729Z,97069.23
2019-04-28T20:36:43.473Z,97068.73
2019-04-28T20:42:36.544Z,97071.15
2019-04-28T20:45:44.013Z,97071.15
2019-04-28T20:48:10.224Z,97074.30
2019-04-28T20:50:36.064Z,97074.30
2019-04-28T20:53:01.952Z,97071.82
2019-04-28T20:55:27.836Z,97075.16
2019-04-28T20:57:53.792Z,97080.44
2019-04-28T21:00:19.780Z,97077.41
2019-04-28T21:02:45.855Z,97083.98
2019-04-28T21:05:11.816Z,97077.91
2019-04-28T21:07:37.669Z,97081.59
2019-04-28T21:10:45.143Z,97089.24
2019-04-28T21:13:10.990Z,97079.59
2019-04-28T21:15:36.936Z,97076.02
2019-04-28T21:18:02.863Z,97090.22
2019-04-28T21:20:28.825Z,97090.51
2019-04-28T21:22:54.662Z,97090.22
2019-04-28T21:25:20.515Z,97091.73
2019-04-28T21:27:46.358Z,97088.39
2019-04-28T21:30:12.307Z,97092.23
2019-04-28T21:32:38.141Z,97088.08
2019-04-28T21:35:03.990Z,97081.39
2019-04-28T21:37:29.829Z,97086.92
2019-04-28T21:39:55.655Z,97082.61
2019-04-28T21:45:19.037Z,97079.55
2019-04-28T21:47:44.895Z,97078.66
2019-04-28T21:50:10.807Z,97080.27
2019-04-28T21:52:36.682Z,97085.62
2019-04-28T21:55:44.172Z,97089.42
2019-04-28T21:58:10.953Z,97086.97
2019-04-28T22:01:18.456Z,97094.18
2019-04-28T22:03:44.304Z,97092.58
2019-04-28T22:06:10.255Z,97086.98
2019-04-28T22:08:36.085Z,97090.48
2019-04-28T22:11:02.283Z,97090.48
2019-04-28T22:13:28.159Z,97090.20
2019-04-28T22:15:54.101Z,97089.10
2019-04-28T22:18:19.952Z,97086.79
2019-04-28T22:20:46.188Z,97089.36
2019-04-28T22:23:52.030Z,97090.09
2019-04-28T22:26:57.838Z,97091.02
2019-04-28T22:29:43.561Z,97091.77
2019-04-28T22:32:09.435Z,97091.77
2019-04-28T22:34:35.290Z,97090.20
2019-04-28T22:37:01.118Z,97095.73
2019-04-28T22:39:26.996Z,97095.02
2019-04-28T22:41:52.835Z,97093.36
2019-04-28T22:44:18.673Z,97089.55
2019-04-28T22:46:44.512Z,97084.86
2019-04-28T22:49:10.674Z,97084.70
2019-04-28T22:51:36.530Z,97091.83
2019-04-28T22:54:44.012Z,97090.92
2019-04-28T22:57:29.746Z,97086.08
2019-04-28T23:02:43.058Z,97083.27
2019-04-28T23:05:08.979Z,97083.27
2019-04-28T23:07:34.928Z,97088.79
2019-04-28T23:10:00.766Z,97085.41
2019-04-28T23:12:26.591Z,97090.58
2019-04-28T23:14:52.445Z,97089.63
2019-04-28T23:25:53.570Z,97062.95
2019-04-28T23:28:39.301Z,97079.12
2019-04-28T23:31:05.257Z,97079.12
2019-04-28T23:33:31.116Z,97069.73
2019-04-28T23:35:56.935Z,97079.21
2019-04-28T23:38:22.811Z,97075.86
2019-04-28T23:43:55.883Z,97074.22
2019-04-28T23:49:29.093Z,97071.95
2019-04-28T23:52:36.574Z,97071.95
2019-04-28T23:55:44.059Z,97074.17
2019-04-28T23:58:09.903Z,97069.66
